createdAt,value
2022-07-26T00:02:04.673Z,2.80
2022-07-26T00:04:32.761Z,2.80
2022-07-26T00:07:00.593Z,3.10
2022-07-26T00:09:28.431Z,3.20
2022-07-26T00:11:56.424Z,3.10
2022-07-26T00:14:24.509Z,2.90
2022-07-26T00:16:52.385Z,2.80
2022-07-26T00:19:20.242Z,3.20
2022-07-26T00:21:48.738Z,2.80
2022-07-26T00:24:16.578Z,2.90
2022-07-26T00:26:44.347Z,3.40
2022-07-26T00:29:12.236Z,3.50
2022-07-26T00:31:40.245Z,3.50
2022-07-26T00:34:08.171Z,3.30
2022-07-26T00:36:36.157Z,3.30
2022-07-26T00:39:09.281Z,2.80
2022-07-26T00:41:37.609Z,3.10
2022-07-26T00:44:05.986Z,3.60
2022-07-26T00:46:33.778Z,3.30
2022-07-26T00:49:01.840Z,3.10
2022-07-26T00:51:30.027Z,3.10
2022-07-26T00:53:57.933Z,3.30
2022-07-26T00:56:26.828Z,3.00
2022-07-26T00:58:54.536Z,3.30
2022-07-26T01:01:22.274Z,3.40
2022-07-26T01:03:54.516Z,3.70
2022-07-26T01:06:27.330Z,3.30
2022-07-26T01:08:55.772Z,3.40
2022-07-26T01:11:23.654Z,3.40
2022-07-26T01:13:51.950Z,3.70
2022-07-26T01:16:20.098Z,3.60
2022-07-26T01:18:47.830Z,4.20
2022-07-26T01:21:15.941Z,3.40
2022-07-26T01:23:44.504Z,3.30
2022-07-26T01:26:12.653Z,3.70
2022-07-26T01:28:42.776Z,3.60
2022-07-26T01:31:10.730Z,3.60
2022-07-26T01:33:38.671Z,3.90
2022-07-26T01:36:06.534Z,2.60
2022-07-26T01:38:34.878Z,2.70
2022-07-26T01:41:02.706Z,2.70
2022-07-26T01:43:30.607Z,3.10
2022-07-26T01:45:58.416Z,2.60
2022-07-26T01:48:26.464Z,2.90
2022-07-26T01:50:54.422Z,3.00
2022-07-26T01:53:22.547Z,3.20
2022-07-26T01:55:50.587Z,2.70
2022-07-26T01:58:18.819Z,3.10
2022-07-26T02:00:46.768Z,3.00
2022-07-26T02:03:14.968Z,2.70
2022-07-26T02:05:42.730Z,3.00
2022-07-26T02:08:11.729Z,3.10
2022-07-26T02:10:59.194Z,3.60
2022-07-26T02:13:35.777Z,3.90
2022-07-26T02:16:05.755Z,5.40
2022-07-26T02:18:34.432Z,7.80
2022-07-26T02:21:02.610Z,8.40
2022-07-26T02:23:30.708Z,10.10
2022-07-26T02:25:58.592Z,11.00
2022-07-26T02:28:28.190Z,11.50
2022-07-26T02:30:55.998Z,12.60
2022-07-26T02:33:24.896Z,12.70
2022-07-26T02:35:52.599Z,13.40
2022-07-26T02:38:20.262Z,13.20
2022-07-26T02:40:50.618Z,13.10
2022-07-26T02:43:18.529Z,13.30
2022-07-26T02:46:01.881Z,13.20
2022-07-26T02:48:31.557Z,13.30
2022-07-26T02:51:00.087Z,14.00
2022-07-26T02:53:28.424Z,13.90
2022-07-26T02:55:56.088Z,14.40
2022-07-26T02:58:25.256Z,13.00
2022-07-26T03:00:53.151Z,13.20
2022-07-26T03:03:20.924Z,13.30
2022-07-26T03:05:48.960Z,12.10
2022-07-26T03:08:16.986Z,11.60
2022-07-26T03:10:45.029Z,11.60
2022-07-26T03:13:13.033Z,11.80
2022-07-26T03:15:41.085Z,11.40
2022-07-26T03:18:08.869Z,10.60
2022-07-26T03:20:36.829Z,12.10
2022-07-26T03:23:04.646Z,11.40
2022-07-26T03:25:32.441Z,11.00
2022-07-26T03:28:05.738Z,10.80
2022-07-26T03:30:33.702Z,11.00
2022-07-26T03:33:01.665Z,12.60
2022-07-26T03:35:29.390Z,11.00
2022-07-26T03:37:57.063Z,10.60
2022-07-26T03:40:25.008Z,10.30
2022-07-26T03:42:52.822Z,11.00
2022-07-26T03:45:20.755Z,10.30
2022-07-26T03:47:48.668Z,10.80
2022-07-26T03:50:16.567Z,11.10
2022-07-26T03:52:44.405Z,10.70
2022-07-26T03:55:30.742Z,10.40
2022-07-26T03:57:59.075Z,11.20
2022-07-26T04:00:26.952Z,10.80
2022-07-26T04:02:54.783Z,11.20
2022-07-26T04:05:23.718Z,11.40
2022-07-26T04:07:53.129Z,12.60
2022-07-26T04:10:22.643Z,11.70
2022-07-26T04:12:50.607Z,10.90
2022-07-26T04:15:20.129Z,11.10
2022-07-26T04:17:48.793Z,10.40
2022-07-26T04:20:17.003Z,10.50
2022-07-26T04:22:45.997Z,9.80
2022-07-26T04:25:13.856Z,10.40
2022-07-26T04:27:41.699Z,8.90
2022-07-26T04:30:14.706Z,9.10
2022-07-26T04:32:45.848Z,8.00
2022-07-26T04:35:15.603Z,8.60
2022-07-26T04:37:45.394Z,8.00
2022-07-26T04:40:21.045Z,8.00
2022-07-26T04:42:51.024Z,7.90
2022-07-26T04:45:19.484Z,7.90
2022-07-26T04:47:50.365Z,8.20
2022-07-26T04:50:19.846Z,6.80
2022-07-26T04:52:49.262Z,6.20
2022-07-26T04:55:17.987Z,6.10
2022-07-26T04:57:47.687Z,6.20
2022-07-26T05:00:22.990Z,5.80
2022-07-26T05:02:54.584Z,5.30
2022-07-26T05:05:23.104Z,5.50
2022-07-26T05:07:56.515Z,4.80
2022-07-26T05:10:35.407Z,4.70
2022-07-26T05:13:05.410Z,4.60
2022-07-26T05:15:35.047Z,5.00
2022-07-26T05:18:10.687Z,4.60
2022-07-26T05:20:41.277Z,4.90
2022-07-26T05:23:09.660Z,4.10
2022-07-26T05:25:38.816Z,4.70
2022-07-26T05:28:06.572Z,4.00
2022-07-26T05:30:34.300Z,4.10
2022-07-26T05:33:02.188Z,4.00
2022-07-26T05:35:29.955Z,4.20
2022-07-26T05:37:57.713Z,4.20
2022-07-26T05:40:25.522Z,4.30
2022-07-26T05:42:53.280Z,4.10
2022-07-26T05:45:20.990Z,3.70
2022-07-26T05:47:52.641Z,3.60
2022-07-26T05:50:20.364Z,3.40
2022-07-26T05:52:48.239Z,3.70
2022-07-26T05:55:15.996Z,3.00
2022-07-26T05:57:47.488Z,3.10
2022-07-26T06:00:18.126Z,2.90
2022-07-26T06:02:45.945Z,2.40
2022-07-26T06:05:15.974Z,2.70
2022-07-26T06:07:44.013Z,3.10
2022-07-26T06:10:12.215Z,2.70
2022-07-26T06:12:40.449Z,2.60
2022-07-26T06:15:15.048Z,2.70
2022-07-26T06:17:43.722Z,3.10
2022-07-26T06:20:11.888Z,2.70
2022-07-26T06:22:39.866Z,2.50
2022-07-26T06:25:08.257Z,2.40
2022-07-26T06:27:36.266Z,2.40
2022-07-26T06:30:05.211Z,2.60
2022-07-26T06:32:33.021Z,2.00
2022-07-26T06:35:00.979Z,2.20
2022-07-26T06:37:28.790Z,2.20
2022-07-26T06:39:56.497Z,2.80
2022-07-26T06:42:25.152Z,2.40
2022-07-26T06:44:52.846Z,8.80
2022-07-26T06:47:20.493Z,2.30
2022-07-26T06:49:48.282Z,2.80
2022-07-26T06:52:16.102Z,2.10
2022-07-26T06:54:43.999Z,2.50
2022-07-26T06:57:11.990Z,2.20
2022-07-26T06:59:39.703Z,2.60
2022-07-26T07:02:07.480Z,2.70
2022-07-26T07:04:35.874Z,3.30
2022-07-26T07:07:06.057Z,3.30
2022-07-26T07:09:35.997Z,2.90
2022-07-26T07:12:08.578Z,2.90
2022-07-26T07:14:39.391Z,3.00
2022-07-26T07:17:12.219Z,3.40
2022-07-26T07:19:42.018Z,3.70
2022-07-26T07:22:12.300Z,4.20
2022-07-26T07:24:41.791Z,4.40
2022-07-26T07:27:10.802Z,3.90
2022-07-26T07:29:41.192Z,3.90
2022-07-26T07:32:18.417Z,3.20
2022-07-26T07:34:48.834Z,3.40
2022-07-26T07:37:18.179Z,2.90
2022-07-26T07:39:50.263Z,3.40
2022-07-26T07:42:19.629Z,2.90
2022-07-26T07:44:48.125Z,2.70
2022-07-26T07:47:15.928Z,2.60
2022-07-26T07:49:43.760Z,2.60
2022-07-26T07:52:11.483Z,2.40
2022-07-26T07:54:40.014Z,2.90
2022-07-26T07:57:10.604Z,2.80
2022-07-26T07:59:39.402Z,2.30
2022-07-26T08:02:07.785Z,2.40
2022-07-26T08:04:35.959Z,2.60
2022-07-26T08:07:03.793Z,2.30
2022-07-26T08:09:33.901Z,2.40
2022-07-26T08:12:02.900Z,2.40
2022-07-26T08:14:30.904Z,2.10
2022-07-26T08:16:59.043Z,2.10
2022-07-26T08:19:29.285Z,2.30
2022-07-26T08:22:10.971Z,7.00
2022-07-26T08:24:39.725Z,2.70
2022-07-26T08:27:07.718Z,2.30
2022-07-26T08:29:35.579Z,2.50
2022-07-26T08:32:04.183Z,2.40
2022-07-26T08:34:32.519Z,2.50
2022-07-26T08:37:16.418Z,2.50
2022-07-26T08:39:46.693Z,2.90
2022-07-26T08:42:16.424Z,2.70
2022-07-26T08:44:48.263Z,3.00
2022-07-26T08:47:35.455Z,2.70
2022-07-26T08:50:07.413Z,2.50
2022-07-26T08:52:35.210Z,3.60
2022-07-26T08:55:03.079Z,2.20
2022-07-26T08:57:30.768Z,2.30
2022-07-26T09:00:20.702Z,2.60
2022-07-26T09:02:49.170Z,2.80
2022-07-26T09:05:19.783Z,2.70
2022-07-26T09:07:47.517Z,2.70
2022-07-26T09:10:15.822Z,3.10
2022-07-26T09:12:44.676Z,2.50
2022-07-26T09:15:21.651Z,2.40
2022-07-26T09:17:53.101Z,2.30
2022-07-26T09:20:29.851Z,2.60
2022-07-26T09:23:05.564Z,2.50
2022-07-26T09:25:45.009Z,2.50
2022-07-26T09:28:28.809Z,2.30
2022-07-26T09:31:03.250Z,2.20
2022-07-26T09:33:45.665Z,3.40
2022-07-26T09:36:13.829Z,2.30
2022-07-26T09:38:45.064Z,4.50
2022-07-26T09:41:30.387Z,1.90
2022-07-26T09:44:04.264Z,2.60
2022-07-26T09:46:35.589Z,2.30
2022-07-26T09:49:20.678Z,2.50
2022-07-26T09:51:51.103Z,2.30
2022-07-26T09:54:39.463Z,2.20
2022-07-26T09:57:07.441Z,1.90
2022-07-26T09:59:35.214Z,2.30
2022-07-26T10:02:03.361Z,2.00
2022-07-26T10:04:31.249Z,1.80
2022-07-26T10:06:59.035Z,1.80
2022-07-26T10:09:37.445Z,2.00
2022-07-26T10:12:08.884Z,1.80
2022-07-26T10:14:37.364Z,1.80
2022-07-26T10:17:30.916Z,1.60
2022-07-26T10:20:17.628Z,1.60
2022-07-26T10:22:52.184Z,1.90
2022-07-26T10:25:20.182Z,2.00
2022-07-26T10:27:57.845Z,1.80
2022-07-26T10:30:34.920Z,1.60
2022-07-26T10:33:10.263Z,1.60
2022-07-26T10:35:41.123Z,1.90
2022-07-26T10:38:29.537Z,1.90
2022-07-26T10:41:03.164Z,1.90
2022-07-26T10:43:40.630Z,1.80
2022-07-26T10:46:18.586Z,1.80
2022-07-26T10:48:55.573Z,2.50
2022-07-26T10:51:32.181Z,2.10
2022-07-26T10:54:04.690Z,2.00
2022-07-26T10:56:33.587Z,2.20
2022-07-26T10:59:03.337Z,2.10
2022-07-26T11:01:35.651Z,2.20
2022-07-26T11:04:04.008Z,2.20
2022-07-26T11:06:32.535Z,2.50
2022-07-26T11:09:10.703Z,2.30
2022-07-26T11:11:39.463Z,2.10
2022-07-26T11:14:16.896Z,1.90
2022-07-26T11:16:50.511Z,2.30
2022-07-26T11:19:20.988Z,2.10
2022-07-26T11:22:01.071Z,2.40
2022-07-26T11:24:29.504Z,2.30
2022-07-26T11:27:03.985Z,2.40
2022-07-26T11:29:38.985Z,2.10
2022-07-26T11:32:24.718Z,2.00
2022-07-26T11:35:03.651Z,1.70
2022-07-26T11:37:31.719Z,2.00
2022-07-26T11:39:59.508Z,2.10
2022-07-26T11:42:27.380Z,1.60
2022-07-26T11:44:55.434Z,1.80
2022-07-26T11:47:25.353Z,1.60
2022-07-26T11:50:16.444Z,1.60
2022-07-26T11:52:43.220Z,2.40
2022-07-26T11:55:10.938Z,2.00
2022-07-26T11:57:38.630Z,1.90
2022-07-26T12:00:07.306Z,1.70
2022-07-26T12:02:35.065Z,1.30
2022-07-26T12:05:17.862Z,1.30
2022-07-26T12:07:57.981Z,1.30
2022-07-26T12:10:27.304Z,1.40
2022-07-26T12:13:12.880Z,1.40
2022-07-26T12:15:50.356Z,1.20
2022-07-26T12:18:36.820Z,1.20
2022-07-26T12:21:08.863Z,1.20
2022-07-26T12:23:43.899Z,1.50
2022-07-26T12:26:26.171Z,1.00
2022-07-26T12:28:55.826Z,1.10
2022-07-26T12:31:29.521Z,0.90
2022-07-26T12:33:58.596Z,1.00
2022-07-26T12:36:29.527Z,1.20
2022-07-26T12:39:01.399Z,1.20
2022-07-26T12:41:33.763Z,1.00
2022-07-26T12:44:01.537Z,1.10
2022-07-26T12:46:35.190Z,0.90
2022-07-26T12:49:05.107Z,1.10
2022-07-26T12:51:33.549Z,1.10
2022-07-26T12:54:01.342Z,1.20
2022-07-26T12:56:29.303Z,1.20
2022-07-26T12:59:01.363Z,1.10
2022-07-26T13:01:31.632Z,8.00
2022-07-26T13:04:00.094Z,1.40
2022-07-26T13:06:28.072Z,1.00
2022-07-26T13:08:56.757Z,0.90
2022-07-26T13:11:25.150Z,1.10
2022-07-26T13:13:53.203Z,1.00
2022-07-26T13:16:21.122Z,3.10
2022-07-26T13:18:49.066Z,0.80
2022-07-26T13:21:16.792Z,0.80
2022-07-26T13:23:44.468Z,0.80
2022-07-26T13:26:12.521Z,0.80
2022-07-26T13:28:40.747Z,1.00
2022-07-26T13:31:09.220Z,0.90
2022-07-26T13:33:39.336Z,1.20
2022-07-26T13:36:07.391Z,0.90
2022-07-26T13:38:35.505Z,0.80
2022-07-26T13:41:03.837Z,1.00
2022-07-26T13:43:31.896Z,1.00
2022-07-26T13:45:59.685Z,0.90
2022-07-26T13:48:28.141Z,0.90
2022-07-26T13:50:57.588Z,1.20
2022-07-26T13:53:25.798Z,1.00
2022-07-26T13:55:53.518Z,0.90
2022-07-26T13:58:21.681Z,0.90
2022-07-26T14:00:49.893Z,1.00
2022-07-26T14:03:17.916Z,0.80
2022-07-26T14:05:46.086Z,1.00
2022-07-26T14:08:14.094Z,1.00
2022-07-26T14:10:42.138Z,1.10
2022-07-26T14:13:09.982Z,1.00
2022-07-26T14:15:37.798Z,1.10
2022-07-26T14:18:05.660Z,1.60
2022-07-26T14:20:33.521Z,1.10
2022-07-26T14:23:01.255Z,1.50
2022-07-26T14:25:28.909Z,1.00
2022-07-26T14:27:56.600Z,1.20
2022-07-26T14:30:24.459Z,1.30
2022-07-26T14:32:52.212Z,0.80
2022-07-26T14:35:20.061Z,1.00
2022-07-26T14:37:47.694Z,0.90
2022-07-26T14:40:16.863Z,1.00
2022-07-26T14:42:46.154Z,1.40
2022-07-26T14:45:14.999Z,1.20
2022-07-26T14:47:43.159Z,1.10
2022-07-26T14:50:12.356Z,0.90
2022-07-26T14:52:42.615Z,1.20
2022-07-26T14:55:10.560Z,1.10
2022-07-26T14:57:40.154Z,0.90
2022-07-26T15:00:15.068Z,1.20
2022-07-26T15:02:45.221Z,1.10
2022-07-26T15:05:14.477Z,4.40
2022-07-26T15:07:43.489Z,2.70
2022-07-26T15:10:13.467Z,0.90
2022-07-26T15:12:42.080Z,0.70
2022-07-26T15:15:11.259Z,0.80
2022-07-26T15:17:39.287Z,0.80
2022-07-26T15:20:07.829Z,1.00
2022-07-26T15:22:35.815Z,9.40
2022-07-26T15:25:03.835Z,51.40
2022-07-26T15:27:31.626Z,3.30
2022-07-26T15:30:04.394Z,6.60
2022-07-26T15:32:34.813Z,2.30
2022-07-26T15:35:04.127Z,5.20
2022-07-26T15:37:31.894Z,1.30
2022-07-26T15:40:00.626Z,2.90
2022-07-26T15:42:32.296Z,3.00
2022-07-26T15:45:03.817Z,2.10
2022-07-26T15:48:01.015Z,1.60
2022-07-26T15:50:27.169Z,2.10
2022-07-26T15:52:54.818Z,2.40
2022-07-26T15:55:22.530Z,1.40
2022-07-26T15:57:50.354Z,2.10
2022-07-26T16:00:18.464Z,1.50
2022-07-26T16:02:46.322Z,1.60
2022-07-26T16:05:14.654Z,1.20
2022-07-26T16:07:43.808Z,1.90
2022-07-26T16:10:13.520Z,1.50
2022-07-26T16:12:42.234Z,1.60
2022-07-26T16:15:11.946Z,1.30
2022-07-26T16:17:40.130Z,1.60
2022-07-26T16:20:09.330Z,1.30
2022-07-26T16:22:41.364Z,1.30
2022-07-26T16:25:12.667Z,1.20
2022-07-26T16:27:42.937Z,1.20
2022-07-26T16:30:13.019Z,1.60
2022-07-26T16:32:41.576Z,2.10
2022-07-26T16:35:09.730Z,2.10
2022-07-26T16:37:37.543Z,1.70
2022-07-26T16:52:05.954Z,1.90
2022-07-26T16:54:34.093Z,1.50
2022-07-26T16:57:01.804Z,1.30
2022-07-26T16:59:29.581Z,1.40
2022-07-26T17:02:01.596Z,2.00
2022-07-26T17:04:30.830Z,1.70
2022-07-26T17:07:23.431Z,1.00
2022-07-26T17:09:46.159Z,1.60
2022-07-26T17:12:13.867Z,2.20
2022-07-26T17:14:41.812Z,1.60
2022-07-26T17:17:09.728Z,1.60
2022-07-26T17:19:37.477Z,1.30
2022-07-26T17:22:05.405Z,1.20
2022-07-26T17:24:33.389Z,1.30
2022-07-26T17:27:01.364Z,5.50
2022-07-26T17:29:29.254Z,3.90
2022-07-26T17:31:57.316Z,2.30
2022-07-26T17:34:25.053Z,1.80
2022-07-26T17:37:00.685Z,1.50
2022-07-26T17:39:50.765Z,1.80
2022-07-26T17:42:18.342Z,1.90
2022-07-26T17:44:46.182Z,1.80
2022-07-26T17:47:27.909Z,1.90
2022-07-26T17:50:34.789Z,1.90
2022-07-26T17:52:50.894Z,1.90
2022-07-26T17:55:19.690Z,1.70
2022-07-26T17:57:49.646Z,1.90
2022-07-26T18:00:20.083Z,1.90
2022-07-26T18:02:48.732Z,2.40
2022-07-26T18:05:18.436Z,6.90
2022-07-26T18:07:46.677Z,3.90
2022-07-26T18:10:14.639Z,3.40
2022-07-26T18:12:42.600Z,3.20
2022-07-26T18:15:11.004Z,3.10
2022-07-26T18:17:39.191Z,2.80
2022-07-26T18:20:08.227Z,3.50
2022-07-26T18:22:36.260Z,6.50
2022-07-26T18:25:05.585Z,7.40
2022-07-26T18:27:34.056Z,5.20
2022-07-26T18:30:02.826Z,2.70
2022-07-26T18:32:30.667Z,2.40
2022-07-26T18:34:58.573Z,2.40
2022-07-26T18:37:26.263Z,2.30
2022-07-26T18:39:57.784Z,3.00
2022-07-26T18:42:27.134Z,2.30
2022-07-26T18:44:54.818Z,2.40
2022-07-26T18:47:22.817Z,2.50
2022-07-26T18:49:50.828Z,3.20
2022-07-26T18:52:28.253Z,2.50
2022-07-26T18:55:02.755Z,2.40
2022-07-26T18:57:30.554Z,2.10
2022-07-26T18:59:58.540Z,2.40
2022-07-26T19:02:26.384Z,2.10
2022-07-26T19:04:54.224Z,2.50
2022-07-26T19:07:22.286Z,3.80
2022-07-26T19:09:52.665Z,6.30
2022-07-26T19:12:24.235Z,7.60
2022-07-26T19:14:52.032Z,5.20
2022-07-26T19:17:21.504Z,3.90
2022-07-26T19:19:49.371Z,2.20
2022-07-26T19:22:17.155Z,2.00
2022-07-26T19:24:44.871Z,1.90
2022-07-26T19:27:15.077Z,1.60
2022-07-26T19:29:42.985Z,2.10
2022-07-26T19:32:10.708Z,2.10
2022-07-26T19:34:38.483Z,2.10
2022-07-26T19:37:06.537Z,1.80
2022-07-26T19:39:34.244Z,2.00
2022-07-26T19:42:01.950Z,2.00
2022-07-26T19:44:29.723Z,2.30
2022-07-26T19:46:58.133Z,2.50
2022-07-26T19:49:26.302Z,2.30
2022-07-26T19:51:54.351Z,2.20
2022-07-26T19:54:22.401Z,2.20
2022-07-26T19:56:50.233Z,2.40
2022-07-26T19:59:22.982Z,2.40
2022-07-26T20:01:53.102Z,2.80
2022-07-26T20:04:21.766Z,2.70
2022-07-26T20:06:50.285Z,2.20
2022-07-26T20:09:18.005Z,2.50
2022-07-26T20:11:50.967Z,2.30
2022-07-26T20:14:20.047Z,2.60
2022-07-26T20:16:55.642Z,2.00
2022-07-26T20:19:24.805Z,2.70
2022-07-26T20:21:52.637Z,2.50
2022-07-26T20:24:21.690Z,2.60
2022-07-26T20:26:49.356Z,2.50
2022-07-26T20:29:18.725Z,2.70
2022-07-26T20:31:46.449Z,3.00
2022-07-26T20:34:14.205Z,2.60
2022-07-26T20:36:42.020Z,2.50
2022-07-26T20:39:10.104Z,2.80
2022-07-26T20:41:38.266Z,2.70
2022-07-26T20:44:07.054Z,2.60
2022-07-26T20:46:40.203Z,2.70
2022-07-26T20:49:08.932Z,2.30
2022-07-26T20:51:37.835Z,2.70
2022-07-26T20:54:06.539Z,3.30
2022-07-26T20:56:34.555Z,3.20
2022-07-26T20:59:03.071Z,3.20
2022-07-26T21:01:32.048Z,3.50
2022-07-26T21:04:00.033Z,3.10
2022-07-26T21:06:29.161Z,3.20
2022-07-26T21:08:58.001Z,2.80
2022-07-26T21:11:26.244Z,3.00
2022-07-26T21:13:54.614Z,2.90
2022-07-26T21:16:22.636Z,2.80
2022-07-26T21:18:52.639Z,2.80
2022-07-26T21:21:21.881Z,3.10
2022-07-26T21:23:50.026Z,3.10
2022-07-26T21:26:17.895Z,3.60
2022-07-26T21:28:45.898Z,3.30
2022-07-26T21:31:13.730Z,3.50
2022-07-26T21:33:41.638Z,3.00
2022-07-26T21:36:09.347Z,3.40
2022-07-26T21:38:37.015Z,3.10
2022-07-26T21:41:04.782Z,3.00
2022-07-26T21:43:32.867Z,3.20
2022-07-26T21:46:00.943Z,3.30
2022-07-26T21:48:30.104Z,3.20
2022-07-26T21:50:57.850Z,2.90
2022-07-26T21:53:25.481Z,3.40
2022-07-26T21:55:53.241Z,3.30
2022-07-26T21:58:21.092Z,3.00
2022-07-26T22:00:48.792Z,3.30
2022-07-26T22:03:16.740Z,3.40
2022-07-26T22:05:45.374Z,2.80
2022-07-26T22:08:15.461Z,3.60
2022-07-26T22:15:21.196Z,3.60
2022-07-26T22:17:49.269Z,3.60
2022-07-26T22:20:17.107Z,3.70
2022-07-26T22:22:44.872Z,3.50
2022-07-26T22:25:12.807Z,3.50
2022-07-26T22:27:40.704Z,3.90
2022-07-26T22:30:08.967Z,4.00
2022-07-26T22:32:36.801Z,3.60
2022-07-26T22:35:05.108Z,3.60
2022-07-26T22:37:32.854Z,4.10
2022-07-26T22:40:00.732Z,4.10
2022-07-26T22:42:28.482Z,4.50
2022-07-26T22:44:56.249Z,3.50
2022-07-26T22:47:24.225Z,4.20
2022-07-26T22:52:38.107Z,4.20
2022-07-26T22:55:06.607Z,3.70
2022-07-26T22:57:34.332Z,4.20
2022-07-26T23:00:02.344Z,4.10
2022-07-26T23:02:30.256Z,3.60
2022-07-26T23:04:57.991Z,4.60
2022-07-26T23:07:25.774Z,4.40
2022-07-26T23:09:53.536Z,4.20
2022-07-26T23:12:21.713Z,4.90
2022-07-26T23:14:49.786Z,4.40
2022-07-26T23:17:17.654Z,4.80
2022-07-26T23:19:45.892Z,4.90
2022-07-26T23:22:13.739Z,4.90
2022-07-26T23:24:43.562Z,5.20
2022-07-26T23:27:14.257Z,4.30
2022-07-26T23:29:44.583Z,5.00
2022-07-26T23:32:13.963Z,4.50
2022-07-26T23:34:41.775Z,4.90
2022-07-26T23:37:09.805Z,5.30
2022-07-26T23:39:37.613Z,4.60
2022-07-26T23:42:07.335Z,5.20
2022-07-26T23:44:35.040Z,5.20
2022-07-26T23:47:02.882Z,4.50
2022-07-26T23:49:30.966Z,5.10
2022-07-26T23:51:58.875Z,5.10
2022-07-26T23:54:26.584Z,5.10
2022-07-26T23:56:54.286Z,5.10
2022-07-26T23:59:22.096Z,5.50
